首页
METAR-TAF:

METAR-TAF

机场 :

突尼斯-迦太基国际机场

突尼斯, 突尼斯

纬度: 36-50N, 经度: 010-14E, 海拔: 3米

当前天气观测

该预报发布于40分钟前的23:30 UTC
风速3节,风向西南
温度 14°C
湿度 82%
气压 1011 hPa
能见度10公里或以上
散云层高于2300英尺

METAR: DTTA 172330Z 23003KT 9999 SCT023 14/11 Q1011 NOSIG

时间: 01:10 (00:10 UTC)

预报

该预报发布于1小时和10分钟前的23:00 UTC
预报有效从18日的 00点(UTC)到 18日的 24点(UTC)
风速4节,风向东北
能见度10公里或以上
散云层高于2300英尺
几率 40% :
短暂存在
从 18日的 05点(UTC)到 18日的 07点(UTC)
能見度: 3000
轻雾

TAF: DTTA 172300Z 1800/1824 05004KT 9999 SCT023 PROB40 TEMPO 1805/1807 3000 BR

超过4000个机场的气象观测和天气预报(METAR&TAF报告)。

可查询的气象台以黄色和红色小点在地图上表示。

将鼠标移到小点上方,可查看气象台名称。

然后点击查看天气观测和预报。

如需切换地图:点击带黑十字的绿色按钮放大地图;点击带横线的绿色按钮缩小地图;或者点击绿色箭头查看邻近地区的地图。


METAR-TAF: